Terminal Aerodrome Forecast
Issued by NWS

Home | Current Version | Previous Version | Text Only | Print | Product List | Glossary On
Versions: 1 2 3 4 5 6 7 8 9 10 11 12 13 14 15 16 17 18 19
000
FTUS44 KHGX 221720
TAFSGR
TAF
KSGR 221720Z 2218/2318 25008G18KT P6SM VCSH SCT025 BKN045
     FM230100 20007G17KT P6SM BKN050
     FM230600 19006KT P6SM SCT050 SCT250
     FM230900 19006KT P6SM OVC025=

USA.gov is the U.S. government's official web portal to all federal, state and local government web resources and services.